sensor_id;sensor_type;location;lat;lon;timestamp;P1;durP1;ratioP1;P2;durP2;ratioP2
72085;SDS011;64750;52.134;5.424;2024-03-23T00:53:23;17.00;;;7.22;;
72085;SDS011;64750;52.134;5.424;2024-03-23T00:55:49;12.37;;;6.60;;
72085;SDS011;64750;52.134;5.424;2024-03-23T00:58:14;12.37;;;6.33;;
72085;SDS011;64750;52.134;5.424;2024-03-23T01:00:40;18.60;;;6.23;;
72085;SDS011;64750;52.134;5.424;2024-03-23T01:03:05;17.77;;;6.70;;
72085;SDS011;64750;52.134;5.424;2024-03-23T01:05:31;22.47;;;6.23;;
72085;SDS011;64750;52.134;5.424;2024-03-23T01:07:56;19.58;;;6.15;;
72085;SDS011;64750;52.134;5.424;2024-03-23T01:10:22;13.33;;;6.10;;
72085;SDS011;64750;52.134;5.424;2024-03-23T01:12:47;13.67;;;5.90;;
72085;SDS011;64750;52.134;5.424;2024-03-23T01:15:13;19.60;;;6.38;;
72085;SDS011;64750;52.134;5.424;2024-03-23T01:17:38;18.40;;;6.43;;
72085;SDS011;64750;52.134;5.424;2024-03-23T01:20:04;13.67;;;6.13;;
72085;SDS011;64750;52.134;5.424;2024-03-23T01:22:31;16.55;;;5.97;;
72085;SDS011;64750;52.134;5.424;2024-03-23T01:24:57;16.83;;;6.85;;
72085;SDS011;64750;52.134;5.424;2024-03-23T01:27:22;18.57;;;6.10;;
72085;SDS011;64750;52.134;5.424;2024-03-23T01:29:48;17.80;;;6.57;;
72085;SDS011;64750;52.134;5.424;2024-03-23T01:32:14;10.65;;;6.07;;
72085;SDS011;64750;52.134;5.424;2024-03-23T01:34:39;14.97;;;5.87;;
72085;SDS011;64750;52.134;5.424;2024-03-23T01:37:05;12.50;;;6.40;;
72085;SDS011;64750;52.134;5.424;2024-03-23T01:39:30;12.18;;;6.30;;
72085;SDS011;64750;52.134;5.424;2024-03-23T01:41:56;14.67;;;6.50;;
72085;SDS011;64750;52.134;5.424;2024-03-23T01:44:21;16.20;;;6.53;;
72085;SDS011;64750;52.134;5.424;2024-03-23T01:46:47;14.43;;;6.23;;
72085;SDS011;64750;52.134;5.424;2024-03-23T01:49:13;9.88;;;5.97;;
72085;SDS011;64750;52.134;5.424;2024-03-23T01:51:38;17.43;;;6.83;;
72085;SDS011;64750;52.134;5.424;2024-03-23T01:54:04;15.35;;;6.10;;
72085;SDS011;64750;52.134;5.424;2024-03-23T01:56:33;15.30;;;6.40;;
72085;SDS011;64750;52.134;5.424;2024-03-23T01:59:02;17.37;;;6.20;;
72085;SDS011;64750;52.134;5.424;2024-03-23T02:01:28;13.82;;;6.00;;
72085;SDS011;64750;52.134;5.424;2024-03-23T02:03:54;18.55;;;6.38;;
72085;SDS011;64750;52.134;5.424;2024-03-23T02:06:19;13.60;;;6.30;;
72085;SDS011;64750;52.134;5.424;2024-03-23T02:08:45;16.25;;;6.57;;
72085;SDS011;64750;52.134;5.424;2024-03-23T02:11:11;10.50;;;5.20;;
72085;SDS011;64750;52.134;5.424;2024-03-23T02:13:36;12.03;;;5.90;;
72085;SDS011;64750;52.134;5.424;2024-03-23T02:16:02;12.10;;;6.55;;
72085;SDS011;64750;52.134;5.424;2024-03-23T02:18:27;16.93;;;5.87;;
72085;SDS011;64750;52.134;5.424;2024-03-23T02:20:53;14.60;;;6.30;;
72085;SDS011;64750;52.134;5.424;2024-03-23T02:23:18;9.70;;;5.90;;
72085;SDS011;64750;52.134;5.424;2024-03-23T02:25:45;10.48;;;5.97;;
72085;SDS011;64750;52.134;5.424;2024-03-23T02:28:11;14.48;;;6.25;;
72085;SDS011;64750;52.134;5.424;2024-03-23T02:30:37;16.37;;;6.07;;
72085;SDS011;64750;52.134;5.424;2024-03-23T02:33:03;16.77;;;6.53;;
72085;SDS011;64750;52.134;5.424;2024-03-23T02:35:29;24.42;;;7.03;;
72085;SDS011;64750;52.134;5.424;2024-03-23T02:37:54;16.63;;;5.70;;
72085;SDS011;64750;52.134;5.424;2024-03-23T02:40:22;14.32;;;5.60;;
72085;SDS011;64750;52.134;5.424;2024-03-23T02:42:48;13.57;;;6.07;;
72085;SDS011;64750;52.134;5.424;2024-03-23T02:45:13;14.83;;;5.47;;
72085;SDS011;64750;52.134;5.424;2024-03-23T02:47:39;11.88;;;5.22;;
72085;SDS011;64750;52.134;5.424;2024-03-23T02:50:05;12.00;;;5.60;;
72085;SDS011;64750;52.134;5.424;2024-03-23T02:52:31;10.93;;;4.60;;
72085;SDS011;64750;52.134;5.424;2024-03-23T02:54:56;13.33;;;5.33;;
72085;SDS011;64750;52.134;5.424;2024-03-23T02:57:24;11.10;;;4.57;;
72085;SDS011;64750;52.134;5.424;2024-03-23T02:59:50;11.80;;;4.03;;
72085;SDS011;64750;52.134;5.424;2024-03-23T03:02:15;12.70;;;4.37;;
72085;SDS011;64750;52.134;5.424;2024-03-23T03:04:41;17.80;;;4.73;;
72085;SDS011;64750;52.134;5.424;2024-03-23T03:07:07;21.83;;;5.65;;
72085;SDS011;64750;52.134;5.424;2024-03-23T03:09:33;9.47;;;4.00;;
72085;SDS011;64750;52.134;5.424;2024-03-23T03:12:00;13.93;;;4.63;;
72085;SDS011;64750;52.134;5.424;2024-03-23T03:14:27;16.10;;;4.35;;
72085;SDS011;64750;52.134;5.424;2024-03-23T03:16:53;10.18;;;4.00;;
72085;SDS011;64750;52.134;5.424;2024-03-23T03:19:19;14.85;;;4.43;;
72085;SDS011;64750;52.134;5.424;2024-03-23T03:21:45;12.00;;;4.40;;
72085;SDS011;64750;52.134;5.424;2024-03-23T03:24:10;12.27;;;4.45;;
72085;SDS011;64750;52.134;5.424;2024-03-23T03:26:36;10.03;;;4.20;;
72085;SDS011;64750;52.134;5.424;2024-03-23T03:29:02;12.98;;;4.32;;
72085;SDS011;64750;52.134;5.424;2024-03-23T03:31:28;8.67;;;3.93;;
72085;SDS011;64750;52.134;5.424;2024-03-23T03:33:53;9.65;;;4.30;;
72085;SDS011;64750;52.134;5.424;2024-03-23T03:36:19;12.83;;;4.33;;
72085;SDS011;64750;52.134;5.424;2024-03-23T03:38:45;10.63;;;4.28;;
72085;SDS011;64750;52.134;5.424;2024-03-23T03:41:10;8.57;;;4.17;;
72085;SDS011;64750;52.134;5.424;2024-03-23T03:43:36;10.73;;;4.07;;
72085;SDS011;64750;52.134;5.424;2024-03-23T03:46:02;12.80;;;4.00;;
72085;SDS011;64750;52.134;5.424;2024-03-23T03:48:28;8.85;;;4.00;;
72085;SDS011;64750;52.134;5.424;2024-03-23T03:50:54;11.32;;;3.75;;
72085;SDS011;64750;52.134;5.424;2024-03-23T03:53:19;9.37;;;4.03;;
72085;SDS011;64750;52.134;5.424;2024-03-23T03:55:45;11.10;;;4.10;;
72085;SDS011;64750;52.134;5.424;2024-03-23T03:58:10;10.77;;;3.40;;
72085;SDS011;64750;52.134;5.424;2024-03-23T04:00:36;15.68;;;4.03;;
72085;SDS011;64750;52.134;5.424;2024-03-23T04:03:02;6.93;;;4.07;;
72085;SDS011;64750;52.134;5.424;2024-03-23T04:05:27;12.50;;;3.77;;
72085;SDS011;64750;52.134;5.424;2024-03-23T04:07:53;7.70;;;3.08;;
72085;SDS011;64750;52.134;5.424;2024-03-23T04:10:19;9.25;;;3.75;;
72085;SDS011;64750;52.134;5.424;2024-03-23T04:12:45;10.47;;;4.30;;
72085;SDS011;64750;52.134;5.424;2024-03-23T04:15:11;6.25;;;3.70;;
72085;SDS011;64750;52.134;5.424;2024-03-23T04:17:36;6.82;;;3.50;;
72085;SDS011;64750;52.134;5.424;2024-03-23T04:20:02;8.70;;;3.67;;
72085;SDS011;64750;52.134;5.424;2024-03-23T04:22:30;8.05;;;4.25;;
72085;SDS011;64750;52.134;5.424;2024-03-23T04:24:56;5.57;;;3.67;;
72085;SDS011;64750;52.134;5.424;2024-03-23T04:27:22;8.13;;;3.40;;
72085;SDS011;64750;52.134;5.424;2024-03-23T04:29:48;5.28;;;3.20;;
72085;SDS011;64750;52.134;5.424;2024-03-23T04:32:18;14.57;;;3.95;;
72085;SDS011;64750;52.134;5.424;2024-03-23T04:34:44;10.83;;;3.33;;
72085;SDS011;64750;52.134;5.424;2024-03-23T04:37:10;15.82;;;4.00;;
72085;SDS011;64750;52.134;5.424;2024-03-23T04:39:36;8.75;;;3.90;;
72085;SDS011;64750;52.134;5.424;2024-03-23T04:42:02;7.70;;;4.30;;
72085;SDS011;64750;52.134;5.424;2024-03-23T04:44:28;8.55;;;4.22;;
72085;SDS011;64750;52.134;5.424;2024-03-23T04:46:54;9.65;;;3.85;;
72085;SDS011;64750;52.134;5.424;2024-03-23T04:49:20;7.73;;;3.87;;
72085;SDS011;64750;52.134;5.424;2024-03-23T04:51:45;6.25;;;3.40;;
72085;SDS011;64750;52.134;5.424;2024-03-23T04:54:14;7.70;;;3.37;;
72085;SDS011;64750;52.134;5.424;2024-03-23T04:56:40;7.68;;;3.83;;
72085;SDS011;64750;52.134;5.424;2024-03-23T04:59:06;9.50;;;4.03;;
72085;SDS011;64750;52.134;5.424;2024-03-23T05:01:32;9.07;;;3.87;;
72085;SDS011;64750;52.134;5.424;2024-03-23T05:03:58;7.13;;;3.47;;
72085;SDS011;64750;52.134;5.424;2024-03-23T05:06:24;5.88;;;3.10;;
72085;SDS011;64750;52.134;5.424;2024-03-23T05:08:50;6.30;;;3.50;;
72085;SDS011;64750;52.134;5.424;2024-03-23T05:11:17;7.45;;;2.75;;
72085;SDS011;64750;52.134;5.424;2024-03-23T05:13:43;13.02;;;2.90;;
72085;SDS011;64750;52.134;5.424;2024-03-23T05:16:09;12.07;;;2.60;;
72085;SDS011;64750;52.134;5.424;2024-03-23T05:18:34;2.67;;;1.87;;
72085;SDS011;64750;52.134;5.424;2024-03-23T05:21:00;12.45;;;2.63;;
72085;SDS011;64750;52.134;5.424;2024-03-23T05:23:26;10.50;;;2.50;;
72085;SDS011;64750;52.134;5.424;2024-03-23T05:25:53;7.47;;;2.83;;
72085;SDS011;64750;52.134;5.424;2024-03-23T05:28:18;9.97;;;2.37;;
72085;SDS011;64750;52.134;5.424;2024-03-23T05:30:49;5.50;;;2.40;;
72085;SDS011;64750;52.134;5.424;2024-03-23T05:33:15;8.13;;;2.08;;
72085;SDS011;64750;52.134;5.424;2024-03-23T05:35:41;7.40;;;1.97;;
72085;SDS011;64750;52.134;5.424;2024-03-23T05:38:06;10.77;;;2.30;;
72085;SDS011;64750;52.134;5.424;2024-03-23T05:40:32;7.53;;;2.58;;
72085;SDS011;64750;52.134;5.424;2024-03-23T05:42:57;6.30;;;2.03;;
72085;SDS011;64750;52.134;5.424;2024-03-23T05:45:23;8.83;;;2.23;;
72085;SDS011;64750;52.134;5.424;2024-03-23T05:47:49;9.17;;;2.43;;
72085;SDS011;64750;52.134;5.424;2024-03-23T05:50:14;8.03;;;2.30;;
72085;SDS011;64750;52.134;5.424;2024-03-23T05:52:40;6.45;;;1.75;;
72085;SDS011;64750;52.134;5.424;2024-03-23T05:55:06;4.53;;;1.80;;
72085;SDS011;64750;52.134;5.424;2024-03-23T05:57:31;6.07;;;2.00;;
72085;SDS011;64750;52.134;5.424;2024-03-23T05:59:57;11.23;;;2.10;;
72085;SDS011;64750;52.134;5.424;2024-03-23T06:02:23;6.85;;;2.28;;
72085;SDS011;64750;52.134;5.424;2024-03-23T06:04:49;5.97;;;1.87;;
72085;SDS011;64750;52.134;5.424;2024-03-23T06:07:14;7.18;;;1.38;;
72085;SDS011;64750;52.134;5.424;2024-03-23T06:09:41;6.93;;;1.67;;
72085;SDS011;64750;52.134;5.424;2024-03-23T06:12:07;5.43;;;2.27;;
72085;SDS011;64750;52.134;5.424;2024-03-23T06:14:33;7.40;;;1.17;;
72085;SDS011;64750;52.134;5.424;2024-03-23T06:16:59;7.72;;;1.35;;
72085;SDS011;64750;52.134;5.424;2024-03-23T06:19:25;5.60;;;1.20;;
72085;SDS011;64750;52.134;5.424;2024-03-23T06:21:55;12.20;;;1.92;;
72085;SDS011;64750;52.134;5.424;2024-03-23T06:24:21;5.53;;;0.90;;
72085;SDS011;64750;52.134;5.424;2024-03-23T06:26:47;8.38;;;1.48;;
72085;SDS011;64750;52.134;5.424;2024-03-23T06:29:12;12.25;;;1.45;;
72085;SDS011;64750;52.134;5.424;2024-03-23T06:31:38;6.63;;;1.73;;
72085;SDS011;64750;52.134;5.424;2024-03-23T06:34:04;9.75;;;1.30;;
72085;SDS011;64750;52.134;5.424;2024-03-23T06:36:30;6.83;;;1.10;;
72085;SDS011;64750;52.134;5.424;2024-03-23T06:38:56;5.18;;;1.70;;
72085;SDS011;64750;52.134;5.424;2024-03-23T06:41:22;3.95;;;1.05;;
72085;SDS011;64750;52.134;5.424;2024-03-23T06:43:48;3.80;;;1.15;;
72085;SDS011;64750;52.134;5.424;2024-03-23T06:46:13;6.30;;;1.30;;
72085;SDS011;64750;52.134;5.424;2024-03-23T06:48:39;10.10;;;1.33;;
72085;SDS011;64750;52.134;5.424;2024-03-23T06:51:04;5.70;;;1.20;;
72085;SDS011;64750;52.134;5.424;2024-03-23T06:53:30;6.60;;;1.42;;
72085;SDS011;64750;52.134;5.424;2024-03-23T06:55:55;6.27;;;1.30;;
72085;SDS011;64750;52.134;5.424;2024-03-23T06:58:21;6.70;;;1.60;;
72085;SDS011;64750;52.134;5.424;2024-03-23T07:00:48;9.25;;;1.40;;
72085;SDS011;64750;52.134;5.424;2024-03-23T07:03:14;5.47;;;1.10;;
72085;SDS011;64750;52.134;5.424;2024-03-23T07:05:40;8.73;;;1.40;;
72085;SDS011;64750;52.134;5.424;2024-03-23T07:08:06;6.63;;;1.50;;
72085;SDS011;64750;52.134;5.424;2024-03-23T07:10:31;7.28;;;1.40;;
72085;SDS011;64750;52.134;5.424;2024-03-23T07:12:57;7.43;;;1.60;;
72085;SDS011;64750;52.134;5.424;2024-03-23T07:15:22;9.70;;;1.60;;
72085;SDS011;64750;52.134;5.424;2024-03-23T07:17:48;9.80;;;1.52;;
72085;SDS011;64750;52.134;5.424;2024-03-23T07:20:13;4.87;;;1.97;;
72085;SDS011;64750;52.134;5.424;2024-03-23T07:22:39;9.35;;;2.17;;
72085;SDS011;64750;52.134;5.424;2024-03-23T07:25:05;5.07;;;1.20;;
72085;SDS011;64750;52.134;5.424;2024-03-23T07:27:31;7.55;;;2.10;;
72085;SDS011;64750;52.134;5.424;2024-03-23T07:29:57;5.00;;;1.95;;
72085;SDS011;64750;52.134;5.424;2024-03-23T07:32:23;8.07;;;2.87;;
72085;SDS011;64750;52.134;5.424;2024-03-23T07:34:48;3.57;;;1.40;;
72085;SDS011;64750;52.134;5.424;2024-03-23T07:37:14;5.50;;;1.90;;
72085;SDS011;64750;52.134;5.424;2024-03-23T07:39:40;8.03;;;1.60;;
72085;SDS011;64750;52.134;5.424;2024-03-23T07:42:05;8.00;;;1.60;;
72085;SDS011;64750;52.134;5.424;2024-03-23T07:44:31;5.82;;;1.60;;
72085;SDS011;64750;52.134;5.424;2024-03-23T07:46:58;7.57;;;1.70;;
72085;SDS011;64750;52.134;5.424;2024-03-23T07:49:24;15.13;;;1.98;;
72085;SDS011;64750;52.134;5.424;2024-03-23T07:51:50;5.27;;;1.30;;
72085;SDS011;64750;52.134;5.424;2024-03-23T07:54:15;6.93;;;1.70;;
72085;SDS011;64750;52.134;5.424;2024-03-23T07:56:41;6.43;;;1.27;;
72085;SDS011;64750;52.134;5.424;2024-03-23T07:59:06;3.97;;;1.40;;
72085;SDS011;64750;52.134;5.424;2024-03-23T08:01:32;9.20;;;1.40;;
72085;SDS011;64750;52.134;5.424;2024-03-23T08:03:57;8.27;;;1.75;;
72085;SDS011;64750;52.134;5.424;2024-03-23T08:06:23;6.43;;;1.43;;
72085;SDS011;64750;52.134;5.424;2024-03-23T08:08:50;7.53;;;1.40;;
72085;SDS011;64750;52.134;5.424;2024-03-23T08:11:27;8.93;;;1.42;;
72085;SDS011;64750;52.134;5.424;2024-03-23T08:13:54;4.30;;;1.25;;
72085;SDS011;64750;52.134;5.424;2024-03-23T08:16:20;6.13;;;1.60;;
72085;SDS011;64750;52.134;5.424;2024-03-23T08:18:46;9.00;;;1.40;;
72085;SDS011;64750;52.134;5.424;2024-03-23T08:21:12;11.30;;;1.13;;
72085;SDS011;64750;52.134;5.424;2024-03-23T08:23:41;10.73;;;1.65;;
72085;SDS011;64750;52.134;5.424;2024-03-23T08:26:07;10.10;;;1.10;;
72085;SDS011;64750;52.134;5.424;2024-03-23T08:28:34;3.47;;;1.23;;
72085;SDS011;64750;52.134;5.424;2024-03-23T08:31:03;6.93;;;1.20;;
72085;SDS011;64750;52.134;5.424;2024-03-23T08:33:30;11.27;;;1.43;;
72085;SDS011;64750;52.134;5.424;2024-03-23T08:35:57;5.80;;;0.95;;
72085;SDS011;64750;52.134;5.424;2024-03-23T08:38:24;4.35;;;0.90;;
72085;SDS011;64750;52.134;5.424;2024-03-23T08:41:00;1.42;;;0.50;;
72085;SDS011;64750;52.134;5.424;2024-03-23T08:43:28;5.40;;;1.07;;
72085;SDS011;64750;52.134;5.424;2024-03-23T08:46:02;9.27;;;1.23;;
72085;SDS011;64750;52.134;5.424;2024-03-23T08:48:29;5.30;;;1.10;;
72085;SDS011;64750;52.134;5.424;2024-03-23T08:51:13;5.40;;;1.57;;
72085;SDS011;64750;52.134;5.424;2024-03-23T08:53:40;5.75;;;1.35;;
72085;SDS011;64750;52.134;5.424;2024-03-23T08:56:06;5.50;;;0.90;;
72085;SDS011;64750;52.134;5.424;2024-03-23T08:58:33;5.13;;;1.00;;
72085;SDS011;64750;52.134;5.424;2024-03-23T09:01:04;10.07;;;1.33;;
72085;SDS011;64750;52.134;5.424;2024-03-23T09:03:32;6.78;;;1.08;;
72085;SDS011;64750;52.134;5.424;2024-03-23T09:05:57;4.33;;;0.93;;
72085;SDS011;64750;52.134;5.424;2024-03-23T09:08:24;11.77;;;1.20;;
72085;SDS011;64750;52.134;5.424;2024-03-23T09:10:49;5.20;;;1.05;;
72085;SDS011;64750;52.134;5.424;2024-03-23T09:13:15;12.23;;;1.33;;
72085;SDS011;64750;52.134;5.424;2024-03-23T09:15:48;7.72;;;1.10;;
72085;SDS011;64750;52.134;5.424;2024-03-23T09:18:16;7.38;;;0.90;;
72085;SDS011;64750;52.134;5.424;2024-03-23T09:20:41;5.55;;;1.00;;
72085;SDS011;64750;52.134;5.424;2024-03-23T09:23:07;4.17;;;1.03;;
72085;SDS011;64750;52.134;5.424;2024-03-23T09:25:36;7.63;;;1.15;;
72085;SDS011;64750;52.134;5.424;2024-03-23T09:28:03;5.47;;;0.80;;
72085;SDS011;64750;52.134;5.424;2024-03-23T09:30:29;5.32;;;1.15;;
72085;SDS011;64750;52.134;5.424;2024-03-23T09:32:54;5.17;;;0.80;;
72085;SDS011;64750;52.134;5.424;2024-03-23T09:35:20;5.45;;;0.70;;
72085;SDS011;64750;52.134;5.424;2024-03-23T09:37:45;4.23;;;1.00;;
72085;SDS011;64750;52.134;5.424;2024-03-23T09:40:11;1.00;;;0.60;;
72085;SDS011;64750;52.134;5.424;2024-03-23T09:42:37;9.05;;;1.00;;
72085;SDS011;64750;52.134;5.424;2024-03-23T09:45:06;2.40;;;0.70;;
72085;SDS011;64750;52.134;5.424;2024-03-23T09:47:42;3.97;;;1.15;;
72085;SDS011;64750;52.134;5.424;2024-03-23T09:50:07;3.77;;;0.70;;
72085;SDS011;64750;52.134;5.424;2024-03-23T09:52:34;2.40;;;0.50;;
72085;SDS011;64750;52.134;5.424;2024-03-23T09:55:00;3.58;;;0.70;;
72085;SDS011;64750;52.134;5.424;2024-03-23T09:57:26;5.87;;;1.83;;
72085;SDS011;64750;52.134;5.424;2024-03-23T09:59:51;7.90;;;1.00;;
72085;SDS011;64750;52.134;5.424;2024-03-23T10:02:17;4.27;;;1.30;;
72085;SDS011;64750;52.134;5.424;2024-03-23T10:04:45;7.00;;;1.10;;
72085;SDS011;64750;52.134;5.424;2024-03-23T10:07:14;6.43;;;0.90;;
72085;SDS011;64750;52.134;5.424;2024-03-23T10:09:44;5.25;;;1.63;;
72085;SDS011;64750;52.134;5.424;2024-03-23T10:12:11;4.72;;;1.00;;
72085;SDS011;64750;52.134;5.424;2024-03-23T10:14:42;3.53;;;0.90;;
72085;SDS011;64750;52.134;5.424;2024-03-23T10:19:40;4.95;;;0.73;;
72085;SDS011;64750;52.134;5.424;2024-03-23T10:22:12;4.65;;;1.00;;
72085;SDS011;64750;52.134;5.424;2024-03-23T10:24:40;4.88;;;0.80;;
72085;SDS011;64750;52.134;5.424;2024-03-23T10:27:05;6.17;;;0.90;;
72085;SDS011;64750;52.134;5.424;2024-03-23T10:29:31;11.23;;;0.90;;
72085;SDS011;64750;52.134;5.424;2024-03-23T10:32:16;8.40;;;0.87;;
72085;SDS011;64750;52.134;5.424;2024-03-23T10:34:42;4.05;;;0.80;;
72085;SDS011;64750;52.134;5.424;2024-03-23T10:37:08;4.43;;;0.75;;
72085;SDS011;64750;52.134;5.424;2024-03-23T10:39:36;7.80;;;0.97;;
72085;SDS011;64750;52.134;5.424;2024-03-23T10:42:03;8.68;;;1.10;;
72085;SDS011;64750;52.134;5.424;2024-03-23T10:44:30;4.25;;;0.77;;
72085;SDS011;64750;52.134;5.424;2024-03-23T10:47:00;4.97;;;0.90;;
72085;SDS011;64750;52.134;5.424;2024-03-23T10:49:27;5.30;;;0.88;;
72085;SDS011;64750;52.134;5.424;2024-03-23T10:51:55;5.60;;;0.70;;
72085;SDS011;64750;52.134;5.424;2024-03-23T10:54:23;5.00;;;0.60;;
72085;SDS011;64750;52.134;5.424;2024-03-23T10:56:51;5.57;;;0.80;;
72085;SDS011;64750;52.134;5.424;2024-03-23T10:59:24;5.53;;;0.50;;
72085;SDS011;64750;52.134;5.424;2024-03-23T11:01:55;6.63;;;0.90;;
72085;SDS011;64750;52.134;5.424;2024-03-23T11:04:31;7.97;;;0.70;;
72085;SDS011;64750;52.134;5.424;2024-03-23T11:06:57;6.80;;;0.95;;
72085;SDS011;64750;52.134;5.424;2024-03-23T11:09:42;4.05;;;0.57;;
72085;SDS011;64750;52.134;5.424;2024-03-23T11:17:31;6.03;;;0.60;;
72085;SDS011;64750;52.134;5.424;2024-03-23T11:19:58;5.82;;;0.80;;
72085;SDS011;64750;52.134;5.424;2024-03-23T11:25:02;4.68;;;0.82;;
72085;SDS011;64750;52.134;5.424;2024-03-23T11:27:28;4.07;;;1.40;;
72085;SDS011;64750;52.134;5.424;2024-03-23T11:29:54;5.10;;;0.80;;
72085;SDS011;64750;52.134;5.424;2024-03-23T11:32:19;4.33;;;0.83;;
72085;SDS011;64750;52.134;5.424;2024-03-23T11:34:45;6.18;;;0.95;;
72085;SDS011;64750;52.134;5.424;2024-03-23T11:37:10;7.33;;;1.50;;
72085;SDS011;64750;52.134;5.424;2024-03-23T11:39:36;6.95;;;0.98;;
72085;SDS011;64750;52.134;5.424;2024-03-23T11:42:01;4.27;;;1.03;;
72085;SDS011;64750;52.134;5.424;2024-03-23T11:44:27;7.37;;;1.43;;
72085;SDS011;64750;52.134;5.424;2024-03-23T11:46:52;7.75;;;0.82;;
72085;SDS011;64750;52.134;5.424;2024-03-23T11:49:25;4.27;;;0.80;;
72085;SDS011;64750;52.134;5.424;2024-03-23T11:51:52;4.28;;;0.88;;
72085;SDS011;64750;52.134;5.424;2024-03-23T11:57:02;3.07;;;0.53;;
72085;SDS011;64750;52.134;5.424;2024-03-23T11:59:36;3.80;;;0.60;;
72085;SDS011;64750;52.134;5.424;2024-03-23T12:02:10;3.78;;;0.90;;
72085;SDS011;64750;52.134;5.424;2024-03-23T12:04:36;3.97;;;0.88;;
72085;SDS011;64750;52.134;5.424;2024-03-23T12:09:38;3.53;;;0.90;;
72085;SDS011;64750;52.134;5.424;2024-03-23T12:12:14;2.22;;;0.70;;
72085;SDS011;64750;52.134;5.424;2024-03-23T12:14:42;1.30;;;0.60;;
72085;SDS011;64750;52.134;5.424;2024-03-23T12:17:14;3.13;;;0.90;;
72085;SDS011;64750;52.134;5.424;2024-03-23T12:19:42;4.38;;;1.20;;
72085;SDS011;64750;52.134;5.424;2024-03-23T12:22:08;8.47;;;1.27;;
72085;SDS011;64750;52.134;5.424;2024-03-23T12:24:34;5.25;;;0.85;;
72085;SDS011;64750;52.134;5.424;2024-03-23T12:27:03;3.92;;;0.82;;
72085;SDS011;64750;52.134;5.424;2024-03-23T12:29:32;8.55;;;1.63;;
72085;SDS011;64750;52.134;5.424;2024-03-23T12:32:01;4.27;;;0.87;;
72085;SDS011;64750;52.134;5.424;2024-03-23T12:34:27;3.13;;;0.73;;
72085;SDS011;64750;52.134;5.424;2024-03-23T12:36:54;1.88;;;0.90;;
72085;SDS011;64750;52.134;5.424;2024-03-23T12:39:19;4.03;;;0.85;;
72085;SDS011;64750;52.134;5.424;2024-03-23T12:41:49;5.00;;;0.60;;
72085;SDS011;64750;52.134;5.424;2024-03-23T12:44:15;3.65;;;0.70;;
72085;SDS011;64750;52.134;5.424;2024-03-23T12:46:44;4.75;;;0.77;;
72085;SDS011;64750;52.134;5.424;2024-03-23T12:49:10;6.43;;;0.98;;
72085;SDS011;64750;52.134;5.424;2024-03-23T12:51:36;8.93;;;0.80;;
72085;SDS011;64750;52.134;5.424;2024-03-23T12:54:01;4.13;;;1.00;;
72085;SDS011;64750;52.134;5.424;2024-03-23T12:56:28;5.35;;;0.98;;
72085;SDS011;64750;52.134;5.424;2024-03-23T12:58:54;5.17;;;0.77;;
72085;SDS011;64750;52.134;5.424;2024-03-23T13:01:22;5.78;;;0.77;;
72085;SDS011;64750;52.134;5.424;2024-03-23T13:03:51;7.18;;;0.90;;
72085;SDS011;64750;52.134;5.424;2024-03-23T13:06:17;4.47;;;0.63;;
72085;SDS011;64750;52.134;5.424;2024-03-23T13:08:46;5.30;;;0.57;;
72085;SDS011;64750;52.134;5.424;2024-03-23T13:11:15;5.30;;;1.17;;
72085;SDS011;64750;52.134;5.424;2024-03-23T13:13:41;6.10;;;1.13;;
72085;SDS011;64750;52.134;5.424;2024-03-23T13:16:07;4.93;;;1.00;;
72085;SDS011;64750;52.134;5.424;2024-03-23T13:18:33;5.70;;;0.90;;
72085;SDS011;64750;52.134;5.424;2024-03-23T13:20:58;3.83;;;0.93;;
72085;SDS011;64750;52.134;5.424;2024-03-23T13:23:24;2.03;;;0.60;;
72085;SDS011;64750;52.134;5.424;2024-03-23T13:25:50;2.58;;;1.05;;
72085;SDS011;64750;52.134;5.424;2024-03-23T13:28:23;2.88;;;0.43;;
72085;SDS011;64750;52.134;5.424;2024-03-23T13:30:52;2.42;;;0.40;;
72085;SDS011;64750;52.134;5.424;2024-03-23T13:33:21;0.57;;;0.20;;
72085;SDS011;64750;52.134;5.424;2024-03-23T13:38:16;1.27;;;0.25;;
72085;SDS011;64750;52.134;5.424;2024-03-23T13:43:21;1.02;;;0.57;;
72085;SDS011;64750;52.134;5.424;2024-03-23T13:45:47;1.75;;;1.00;;
72085;SDS011;64750;52.134;5.424;2024-03-23T13:48:14;1.63;;;1.10;;
72085;SDS011;64750;52.134;5.424;2024-03-23T13:50:40;3.70;;;0.50;;
72085;SDS011;64750;52.134;5.424;2024-03-23T13:53:06;2.37;;;0.40;;
72085;SDS011;64750;52.134;5.424;2024-03-23T13:55:33;1.65;;;0.30;;
72085;SDS011;64750;52.134;5.424;2024-03-23T13:57:58;2.00;;;0.30;;
72085;SDS011;64750;52.134;5.424;2024-03-23T14:00:24;6.13;;;1.00;;
72085;SDS011;64750;52.134;5.424;2024-03-23T14:02:49;3.80;;;0.60;;
72085;SDS011;64750;52.134;5.424;2024-03-23T14:05:15;3.05;;;0.60;;
72085;SDS011;64750;52.134;5.424;2024-03-23T14:07:41;2.43;;;0.97;;
72085;SDS011;64750;52.134;5.424;2024-03-23T14:10:09;5.38;;;1.13;;
72085;SDS011;64750;52.134;5.424;2024-03-23T14:12:36;6.55;;;1.30;;
72085;SDS011;64750;52.134;5.424;2024-03-23T14:15:06;3.35;;;1.00;;
72085;SDS011;64750;52.134;5.424;2024-03-23T14:17:32;0.88;;;0.40;;
72085;SDS011;64750;52.134;5.424;2024-03-23T14:19:57;11.30;;;1.23;;
72085;SDS011;64750;52.134;5.424;2024-03-23T14:22:26;3.40;;;1.08;;
72085;SDS011;64750;52.134;5.424;2024-03-23T14:24:53;2.58;;;0.30;;
72085;SDS011;64750;52.134;5.424;2024-03-23T14:27:19;2.63;;;0.40;;
72085;SDS011;64750;52.134;5.424;2024-03-23T14:29:48;4.47;;;1.65;;
72085;SDS011;64750;52.134;5.424;2024-03-23T14:32:13;3.78;;;0.50;;
72085;SDS011;64750;52.134;5.424;2024-03-23T14:34:40;3.58;;;0.82;;
72085;SDS011;64750;52.134;5.424;2024-03-23T14:37:06;2.87;;;0.90;;
72085;SDS011;64750;52.134;5.424;2024-03-23T14:39:32;7.97;;;0.90;;
72085;SDS011;64750;52.134;5.424;2024-03-23T14:42:00;4.90;;;0.90;;
72085;SDS011;64750;52.134;5.424;2024-03-23T14:44:27;2.73;;;0.67;;
72085;SDS011;64750;52.134;5.424;2024-03-23T14:46:53;3.40;;;0.60;;
72085;SDS011;64750;52.134;5.424;2024-03-23T14:49:20;2.08;;;0.40;;
72085;SDS011;64750;52.134;5.424;2024-03-23T14:51:46;3.37;;;0.70;;
72085;SDS011;64750;52.134;5.424;2024-03-23T14:54:11;4.30;;;0.65;;
72085;SDS011;64750;52.134;5.424;2024-03-23T14:56:38;5.25;;;0.60;;
72085;SDS011;64750;52.134;5.424;2024-03-23T14:59:04;1.83;;;0.40;;
72085;SDS011;64750;52.134;5.424;2024-03-23T15:01:31;6.38;;;0.90;;
72085;SDS011;64750;52.134;5.424;2024-03-23T15:03:57;5.65;;;0.80;;
72085;SDS011;64750;52.134;5.424;2024-03-23T15:06:22;1.77;;;0.60;;
72085;SDS011;64750;52.134;5.424;2024-03-23T15:08:48;3.63;;;0.60;;
72085;SDS011;64750;52.134;5.424;2024-03-23T15:11:14;5.88;;;0.70;;
72085;SDS011;64750;52.134;5.424;2024-03-23T15:13:40;5.27;;;1.00;;
72085;SDS011;64750;52.134;5.424;2024-03-23T15:16:05;2.53;;;0.67;;
72085;SDS011;64750;52.134;5.424;2024-03-23T15:18:31;3.10;;;0.60;;
72085;SDS011;64750;52.134;5.424;2024-03-23T15:21:01;2.50;;;0.70;;
72085;SDS011;64750;52.134;5.424;2024-03-23T15:23:31;3.63;;;0.60;;
72085;SDS011;64750;52.134;5.424;2024-03-23T15:25:57;3.67;;;0.80;;
72085;SDS011;64750;52.134;5.424;2024-03-23T15:28:23;4.10;;;0.85;;
72085;SDS011;64750;52.134;5.424;2024-03-23T15:30:52;4.43;;;0.68;;
72085;SDS011;64750;52.134;5.424;2024-03-23T15:33:17;2.30;;;0.50;;
72085;SDS011;64750;52.134;5.424;2024-03-23T15:35:43;3.63;;;0.77;;
72085;SDS011;64750;52.134;5.424;2024-03-23T15:38:09;5.30;;;0.73;;
72085;SDS011;64750;52.134;5.424;2024-03-23T15:40:35;5.10;;;0.67;;
72085;SDS011;64750;52.134;5.424;2024-03-23T15:43:00;1.48;;;0.60;;
72085;SDS011;64750;52.134;5.424;2024-03-23T15:45:26;2.40;;;0.50;;
72085;SDS011;64750;52.134;5.424;2024-03-23T15:47:52;1.58;;;0.40;;
72085;SDS011;64750;52.134;5.424;2024-03-23T15:50:17;4.37;;;0.70;;
72085;SDS011;64750;52.134;5.424;2024-03-23T15:52:43;4.07;;;0.70;;